createdAt,value
2019-05-02T00:01:32.082Z,100683.02
2019-05-02T00:04:05.757Z,100672.45
2019-05-02T00:06:38.002Z,100665.90
2019-05-02T00:09:11.190Z,100669.81
2019-05-02T00:11:41.458Z,100665.81
2019-05-02T00:14:12.187Z,100670.50
2019-05-02T00:16:45.100Z,100666.45
2019-05-02T00:19:15.369Z,100668.92
2019-05-02T00:21:45.680Z,100659.84
2019-05-02T00:24:15.818Z,100658.38
2019-05-02T00:26:45.986Z,100656.63
2019-05-02T00:29:18.902Z,100658.34
2019-05-02T00:31:48.868Z,100652.59
2019-05-02T00:34:19.061Z,100655.70
2019-05-02T00:36:49.165Z,100654.37
2019-05-02T00:39:19.425Z,100659.58
2019-05-02T00:41:49.551Z,100656.44
2019-05-02T00:44:19.665Z,100654.17
2019-05-02T00:46:49.861Z,100654.14
2019-05-02T00:49:19.989Z,100656.05
2019-05-02T00:51:50.164Z,100652.08
2019-05-02T00:54:24.353Z,100638.72
2019-05-02T00:56:52.137Z,100646.63
2019-05-02T00:59:22.263Z,100638.38
2019-05-02T01:01:59.952Z,100639.89
2019-05-02T01:04:33.174Z,100640.02
2019-05-02T01:07:04.307Z,100634.36
2019-05-02T01:09:37.536Z,100632.60
2019-05-02T01:12:08.413Z,100623.80
2019-05-02T01:14:39.443Z,100629.53
2019-05-02T01:17:09.773Z,100632.31
2019-05-02T01:19:39.989Z,100629.16
2019-05-02T01:22:10.557Z,100624.06
2019-05-02T01:24:42.027Z,100625.73
2019-05-02T01:27:21.911Z,100626.83
2019-05-02T01:30:11.103Z,100624.93
2019-05-02T01:33:10.106Z,100624.06
2019-05-02T01:35:46.336Z,100623.23
2019-05-02T01:38:31.645Z,100615.63
2019-05-02T01:40:58.455Z,100613.50
2019-05-02T01:43:30.382Z,100605.63
2019-05-02T01:46:00.505Z,100605.73
2019-05-02T01:48:30.571Z,100609.33
2019-05-02T01:51:04.651Z,100604.15
2019-05-02T01:53:34.428Z,100606.44
2019-05-02T01:56:04.874Z,100606.81
2019-05-02T01:58:35.081Z,100600.97
2019-05-02T02:01:05.625Z,100602.80
2019-05-02T02:03:40.573Z,100602.02
2019-05-02T02:06:10.065Z,100598.86
2019-05-02T02:08:40.182Z,100598.05
2019-05-02T02:11:10.325Z,100593.98
2019-05-02T02:13:40.443Z,100590.56
2019-05-02T02:16:10.543Z,100597.05
2019-05-02T02:18:46.446Z,100590.02
2019-05-02T02:21:27.697Z,100591.39
2019-05-02T02:24:05.483Z,100587.52
2019-05-02T02:26:35.630Z,100587.19
2019-05-02T02:29:07.811Z,100589.50
2019-05-02T02:31:39.779Z,100589.83
2019-05-02T02:34:10.601Z,100581.52
2019-05-02T02:36:40.714Z,100585.87
2019-05-02T02:39:14.000Z,100587.62
2019-05-02T02:41:45.364Z,100586.25
2019-05-02T02:44:33.859Z,100573.98
2019-05-02T02:47:11.943Z,100575.68
2019-05-02T02:49:37.647Z,100569.97
2019-05-02T02:52:09.580Z,100567.56
2019-05-02T02:54:43.365Z,100573.39
2019-05-02T02:57:26.013Z,100569.75
2019-05-02T02:59:47.363Z,100560.51
2019-05-02T03:02:17.480Z,100562.72
2019-05-02T03:04:47.775Z,100561.07
2019-05-02T03:07:25.490Z,100560.72
2019-05-02T03:09:49.720Z,100560.00
2019-05-02T03:12:47.832Z,100552.47
2019-05-02T03:15:27.727Z,100554.09
2019-05-02T03:17:52.567Z,100546.68
2019-05-02T03:20:22.809Z,100550.16
2019-05-02T03:22:57.585Z,100545.66
2019-05-02T03:25:49.215Z,100545.86
2019-05-02T03:28:01.347Z,100542.27
2019-05-02T03:30:37.177Z,100542.55
2019-05-02T03:33:11.334Z,100538.13
2019-05-02T03:35:48.177Z,100536.41
2019-05-02T03:38:13.098Z,100538.48
2019-05-02T03:40:52.187Z,100541.14
2019-05-02T03:43:25.518Z,100541.69
2019-05-02T03:46:20.433Z,100533.62
2019-05-02T03:48:48.596Z,100531.01
2019-05-02T03:51:25.064Z,100531.69
2019-05-02T03:54:05.634Z,100527.64
2019-05-02T03:56:26.736Z,100531.78
2019-05-02T03:59:01.494Z,100530.58
2019-05-02T04:01:38.662Z,100535.69
2019-05-02T04:04:05.619Z,100532.95
2019-05-02T04:06:36.274Z,100531.75
2019-05-02T04:09:08.197Z,100527.30
2019-05-02T04:11:40.732Z,100526.59
2019-05-02T04:14:17.524Z,100528.97
2019-05-02T04:16:42.140Z,100525.89
2019-05-02T04:19:14.335Z,100524.03
2019-05-02T04:21:45.393Z,100519.55
2019-05-02T04:24:16.376Z,100521.78
2019-05-02T04:26:56.628Z,100518.14
2019-05-02T04:29:31.281Z,100521.06
2019-05-02T04:32:04.387Z,100525.12
2019-05-02T04:34:30.700Z,100517.80
2019-05-02T04:37:03.991Z,100518.31
2019-05-02T04:39:34.810Z,100523.20
2019-05-02T04:42:13.171Z,100521.16
2019-05-02T04:44:59.787Z,100518.75
2019-05-02T04:47:17.597Z,100512.91
2019-05-02T04:49:44.176Z,100518.50
2019-05-02T04:52:17.146Z,100517.66
2019-05-02T04:54:49.009Z,100518.66
2019-05-02T04:57:29.321Z,100515.98
2019-05-02T05:00:06.338Z,100522.81
2019-05-02T05:02:34.299Z,100512.97
2019-05-02T05:05:00.873Z,100522.11
2019-05-02T05:07:41.024Z,100510.49
2019-05-02T05:10:03.601Z,100513.07
2019-05-02T05:12:38.005Z,100507.84
2019-05-02T05:15:07.908Z,100508.00
2019-05-02T05:17:38.174Z,100509.31
2019-05-02T05:20:13.687Z,100508.45
2019-05-02T05:22:44.177Z,100506.27
2019-05-02T05:25:21.213Z,100508.02
2019-05-02T05:27:52.566Z,100508.29
2019-05-02T05:30:21.084Z,100509.41
2019-05-02T05:32:51.227Z,100513.91
2019-05-02T05:35:21.568Z,100512.02
2019-05-02T05:37:53.373Z,100516.88
2019-05-02T05:40:30.420Z,100514.56
2019-05-02T05:43:02.129Z,100515.09
2019-05-02T05:45:30.519Z,100519.39
2019-05-02T05:48:01.191Z,100519.06
2019-05-02T05:50:32.171Z,100517.73
2019-05-02T05:53:03.371Z,100513.14
2019-05-02T05:55:33.549Z,100512.91
2019-05-02T05:58:12.296Z,100517.73
2019-05-02T06:00:37.967Z,100512.28
2019-05-02T06:03:14.036Z,100514.75
2019-05-02T06:05:40.985Z,100503.60
2019-05-02T06:08:13.783Z,100502.35
2019-05-02T06:10:43.885Z,100501.85
2019-05-02T06:13:16.449Z,100503.67
2019-05-02T06:15:46.621Z,100498.30
2019-05-02T06:18:16.731Z,100505.41
2019-05-02T06:20:47.083Z,100497.59
2019-05-02T06:23:17.221Z,100491.77
2019-05-02T06:25:50.438Z,100501.78
2019-05-02T06:28:20.523Z,100498.63
2019-05-02T06:30:50.762Z,100497.73
2019-05-02T06:33:20.895Z,100494.25
2019-05-02T06:35:51.834Z,100492.62
2019-05-02T06:38:22.923Z,100494.34
2019-05-02T06:40:53.173Z,100490.59
2019-05-02T06:43:23.263Z,100496.09
2019-05-02T06:45:53.470Z,100493.16
2019-05-02T06:48:23.596Z,100494.87
2019-05-02T06:50:53.731Z,100492.97
2019-05-02T06:53:23.810Z,100479.78
2019-05-02T06:55:55.098Z,100482.42
2019-05-02T06:58:29.396Z,100475.76
2019-05-02T07:01:01.733Z,100471.84
2019-05-02T07:03:31.909Z,100475.38
2019-05-02T07:06:02.800Z,100476.39
2019-05-02T07:08:33.933Z,100477.09
2019-05-02T07:11:04.154Z,100477.53
2019-05-02T07:13:36.299Z,100475.81
2019-05-02T07:16:16.215Z,100474.52
2019-05-02T07:18:49.667Z,100474.33
2019-05-02T07:21:23.407Z,100471.69
2019-05-02T07:23:53.639Z,100473.55
2019-05-02T07:26:23.678Z,100469.47
2019-05-02T07:28:53.775Z,100470.55
2019-05-02T07:31:23.898Z,100471.77
2019-05-02T07:33:54.015Z,100467.29
2019-05-02T07:36:24.136Z,100456.19
2019-05-02T07:38:57.060Z,100464.99
2019-05-02T07:41:28.933Z,100468.67
2019-05-02T07:43:57.911Z,100461.11
2019-05-02T07:46:28.079Z,100466.77
2019-05-02T07:48:58.344Z,100465.14
2019-05-02T07:51:28.617Z,100459.56
2019-05-02T07:53:59.202Z,100463.41
2019-05-02T07:56:29.375Z,100463.80
2019-05-02T07:58:59.529Z,100462.72
2019-05-02T08:01:29.691Z,100468.88
2019-05-02T08:04:04.523Z,100464.36
2019-05-02T08:06:35.501Z,100460.13
2019-05-02T08:09:07.143Z,100455.77
2019-05-02T08:11:38.513Z,100460.72
2019-05-02T08:14:08.772Z,100455.45
2019-05-02T08:16:38.966Z,100448.98
2019-05-02T08:19:09.109Z,100456.77
2019-05-02T08:21:39.268Z,100456.06
2019-05-02T08:24:09.445Z,100458.16
2019-05-02T08:26:58.309Z,100457.82
2019-05-02T08:29:28.757Z,100458.29
2019-05-02T08:32:01.075Z,100459.99
2019-05-02T08:34:32.631Z,100462.25
2019-05-02T08:37:04.919Z,100453.06
2019-05-02T08:39:35.385Z,100449.37
2019-05-02T08:42:06.353Z,100451.61
2019-05-02T08:44:49.932Z,100454.30
2019-05-02T08:47:18.692Z,100458.03
2019-05-02T08:49:42.502Z,100459.41
2019-05-02T08:52:12.538Z,100460.27
2019-05-02T08:54:42.672Z,100463.87
2019-05-02T08:57:12.904Z,100455.10
2019-05-02T09:00:00.135Z,100466.42
2019-05-02T09:02:41.236Z,100462.88
2019-05-02T09:05:06.479Z,100467.69
2019-05-02T09:07:38.988Z,100466.80
2019-05-02T09:10:09.186Z,100465.20
2019-05-02T09:12:45.410Z,100470.12
2019-05-02T09:15:19.415Z,100468.13
2019-05-02T09:17:54.814Z,100462.44
2019-05-02T09:20:24.195Z,100462.05
2019-05-02T09:22:56.090Z,100465.52
2019-05-02T09:25:28.627Z,100461.44
2019-05-02T09:28:02.010Z,100463.87
2019-05-02T09:30:33.175Z,100464.11
2019-05-02T09:33:06.458Z,100458.85
2019-05-02T09:35:37.387Z,100461.59
2019-05-02T09:38:16.238Z,100458.93
2019-05-02T09:40:47.191Z,100455.30
2019-05-02T09:43:19.046Z,100446.93
2019-05-02T09:45:49.497Z,100448.27
2019-05-02T09:48:22.743Z,100449.39
2019-05-02T09:50:53.942Z,100442.37
2019-05-02T09:53:25.444Z,100439.33
2019-05-02T09:56:02.932Z,100436.69
2019-05-02T09:58:43.193Z,100442.66
2019-05-02T10:01:31.981Z,100441.91
2019-05-02T10:04:05.657Z,100441.47
2019-05-02T10:06:42.924Z,100444.27
2019-05-02T10:09:18.637Z,100444.98
2019-05-02T10:11:52.734Z,100438.47
2019-05-02T10:14:24.760Z,100437.56
2019-05-02T10:17:05.111Z,100430.80
2019-05-02T10:19:32.529Z,100430.50
2019-05-02T10:22:12.254Z,100429.42
2019-05-02T10:24:57.219Z,100429.03
2019-05-02T10:27:27.439Z,100426.13
2019-05-02T10:30:08.459Z,100423.88
2019-05-02T10:32:37.017Z,100419.60
2019-05-02T10:35:08.571Z,100411.48
2019-05-02T10:37:39.669Z,100416.68
2019-05-02T10:40:15.472Z,100409.70
2019-05-02T10:42:42.389Z,100411.89
2019-05-02T10:45:16.771Z,100401.50
2019-05-02T10:47:46.577Z,100401.95
2019-05-02T10:50:22.336Z,100391.00
2019-05-02T10:52:52.780Z,100396.72
2019-05-02T10:55:24.253Z,100389.96
2019-05-02T10:57:54.645Z,100382.16
2019-05-02T11:00:29.658Z,100377.13
2019-05-02T11:03:12.197Z,100372.68
2019-05-02T11:05:44.478Z,100360.18
2019-05-02T11:08:14.695Z,100362.84
2019-05-02T11:10:45.942Z,100372.92
2019-05-02T11:13:37.007Z,100373.73
2019-05-02T11:16:35.575Z,100370.89
2019-05-02T11:19:24.863Z,100374.53
2019-05-02T11:21:59.017Z,100365.70
2019-05-02T11:24:27.917Z,100356.06
2019-05-02T11:26:58.099Z,100357.02
2019-05-02T11:29:28.271Z,100353.66
2019-05-02T11:31:58.401Z,100351.81
2019-05-02T11:34:28.579Z,100356.75
2019-05-02T11:36:59.151Z,100347.56
2019-05-02T11:39:40.686Z,100346.76
2019-05-02T11:42:04.436Z,100344.31
2019-05-02T11:44:34.710Z,100339.55
2019-05-02T11:47:04.821Z,100329.16
2019-05-02T11:49:34.970Z,100316.98
2019-05-02T11:52:05.263Z,100308.19
2019-05-02T11:54:39.165Z,100307.50
2019-05-02T11:57:07.283Z,100303.64
2019-05-02T11:59:37.451Z,100302.38
2019-05-02T12:02:25.397Z,100288.51
2019-05-02T12:04:56.028Z,100289.82
2019-05-02T12:07:26.153Z,100293.44
2019-05-02T12:09:57.188Z,100294.13
2019-05-02T12:12:34.267Z,100295.94
2019-05-02T12:14:59.367Z,100291.07
2019-05-02T12:17:29.527Z,100292.48
2019-05-02T12:20:05.698Z,100283.55
2019-05-02T12:22:42.453Z,100280.87
2019-05-02T12:25:25.435Z,100277.95
2019-05-02T12:28:11.979Z,100272.13
2019-05-02T12:30:52.840Z,100271.37
2019-05-02T12:33:42.989Z,100277.20
2019-05-02T12:36:16.871Z,100266.02
2019-05-02T12:38:52.963Z,100263.92
2019-05-02T12:41:29.587Z,100263.96
2019-05-02T12:44:11.751Z,100258.05
2019-05-02T12:46:45.481Z,100260.61
2019-05-02T12:49:25.307Z,100256.32
2019-05-02T12:52:01.897Z,100253.23
2019-05-02T12:54:34.964Z,100252.92
2019-05-02T12:57:12.515Z,100252.45
2019-05-02T12:59:44.119Z,100266.41
2019-05-02T13:02:27.029Z,100254.90
2019-05-02T13:04:57.433Z,100266.92
2019-05-02T13:07:31.738Z,100256.61
2019-05-02T13:10:22.009Z,100255.38
2019-05-02T13:13:02.808Z,100249.19
2019-05-02T13:15:38.194Z,100248.20
2019-05-02T13:18:12.509Z,100238.34
2019-05-02T13:20:48.949Z,100240.00
2019-05-02T13:23:40.087Z,100238.06
2019-05-02T13:26:21.795Z,100232.92
2019-05-02T13:28:52.690Z,100224.88
2019-05-02T13:31:49.565Z,100234.02
2019-05-02T13:34:54.089Z,100226.65
2019-05-02T13:37:44.149Z,100217.91
2019-05-02T13:40:29.236Z,100220.34
2019-05-02T13:43:05.410Z,100213.16
2019-05-02T13:46:07.600Z,100208.91
2019-05-02T13:48:37.776Z,100204.08
2019-05-02T13:51:07.957Z,100207.05
2019-05-02T13:56:52.771Z,100205.88
2019-05-02T13:59:23.822Z,100202.98
2019-05-02T14:01:55.932Z,100213.05
2019-05-02T14:04:26.317Z,100213.91
2019-05-02T14:07:00.038Z,100205.19
2019-05-02T14:09:58.330Z,100217.75
2019-05-02T14:12:47.226Z,100217.83
2019-05-02T14:15:22.133Z,100216.06
2019-05-02T14:17:54.286Z,100222.13
2019-05-02T14:20:25.631Z,100217.67
2019-05-02T14:22:56.040Z,100225.94
2019-05-02T14:25:35.084Z,100234.33
2019-05-02T14:28:15.899Z,100233.69
2019-05-02T14:30:54.519Z,100223.87
2019-05-02T14:33:27.109Z,100221.34
2019-05-02T14:35:57.657Z,100231.28
2019-05-02T14:38:29.042Z,100226.73
2019-05-02T14:41:12.445Z,100218.62
2019-05-02T14:43:56.484Z,100213.20
2019-05-02T14:46:37.569Z,100211.65
2019-05-02T14:49:04.979Z,100212.30
2019-05-02T14:51:36.777Z,100211.87
2019-05-02T14:54:08.664Z,100208.09
2019-05-02T14:57:11.779Z,100202.62
2019-05-02T14:59:42.870Z,100202.83
2019-05-02T15:02:39.230Z,100195.88
2019-05-02T15:05:09.638Z,100193.89
2019-05-02T15:07:39.913Z,100190.60
2019-05-02T15:10:12.513Z,100182.47
2019-05-02T15:12:51.707Z,100186.36
2019-05-02T15:15:23.095Z,100191.09
2019-05-02T15:17:53.555Z,100183.42
2019-05-02T15:20:36.552Z,100185.54
2019-05-02T15:22:56.715Z,100183.78
2019-05-02T15:25:28.429Z,100183.59
2019-05-02T15:28:02.022Z,100176.15
2019-05-02T15:30:30.997Z,100176.08
2019-05-02T15:33:12.563Z,100172.03
2019-05-02T15:36:03.189Z,100166.77
2019-05-02T15:38:37.161Z,100166.30
2019-05-02T15:41:09.505Z,100163.30
2019-05-02T15:43:39.367Z,100171.55
2019-05-02T15:46:09.678Z,100167.67
2019-05-02T15:48:42.169Z,100177.23
2019-05-02T15:51:15.344Z,100179.08
2019-05-02T15:54:08.091Z,100176.56
2019-05-02T15:56:52.264Z,100178.19
2019-05-02T15:59:37.720Z,100184.61
2019-05-02T16:02:17.563Z,100181.53
2019-05-02T16:04:46.220Z,100178.03
2019-05-02T16:07:20.084Z,100178.30
2019-05-02T16:09:51.521Z,100173.25
2019-05-02T16:12:22.374Z,100169.35
2019-05-02T16:14:52.811Z,100170.20
2019-05-02T16:17:29.531Z,100168.00
2019-05-02T16:20:10.389Z,100165.87
2019-05-02T16:22:46.320Z,100168.33
2019-05-02T16:25:12.208Z,100159.53
2019-05-02T16:27:47.977Z,100154.69
2019-05-02T16:30:22.363Z,100158.20
2019-05-02T16:33:02.827Z,100151.30
2019-05-02T16:35:34.570Z,100154.34
2019-05-02T16:38:04.964Z,100154.08
2019-05-02T16:40:35.338Z,100151.11
2019-05-02T16:43:12.159Z,100149.75
2019-05-02T16:45:43.969Z,100157.02
2019-05-02T16:48:17.241Z,100157.42
2019-05-02T16:50:48.415Z,100149.81
2019-05-02T16:53:22.654Z,100156.47
2019-05-02T16:55:51.835Z,100152.61
2019-05-02T16:58:23.305Z,100157.45
2019-05-02T17:00:55.118Z,100150.66
2019-05-02T17:03:26.601Z,100154.55
2019-05-02T17:05:57.352Z,100143.39
2019-05-02T17:08:58.503Z,100141.35
2019-05-02T17:11:35.944Z,100137.45
2019-05-02T17:14:11.598Z,100134.97
2019-05-02T17:16:38.740Z,100127.46
2019-05-02T17:19:09.168Z,100125.34
2019-05-02T17:21:53.116Z,100122.88
2019-05-02T17:24:17.310Z,100110.98
2019-05-02T17:26:47.286Z,100122.45
2019-05-02T17:29:21.456Z,100122.72
2019-05-02T17:31:50.099Z,100125.73
2019-05-02T17:34:30.067Z,100122.14
2019-05-02T17:36:59.098Z,100127.84
2019-05-02T17:39:30.528Z,100127.02
2019-05-02T17:42:02.766Z,100132.83
2019-05-02T17:44:35.216Z,100131.56
2019-05-02T17:47:06.916Z,100132.11
2019-05-02T17:49:39.254Z,100138.42
2019-05-02T17:52:26.033Z,100132.61
2019-05-02T17:54:52.843Z,100137.05
2019-05-02T17:57:28.559Z,100131.38
2019-05-02T17:59:58.279Z,100139.97
2019-05-02T18:02:34.089Z,100138.47
2019-05-02T18:05:05.588Z,100141.36
2019-05-02T18:07:36.282Z,100137.89
2019-05-02T18:10:14.300Z,100139.00
2019-05-02T18:12:39.492Z,100133.88
2019-05-02T18:15:13.411Z,100137.30
2019-05-02T18:17:46.041Z,100135.80
2019-05-02T18:20:16.092Z,100130.94
2019-05-02T18:22:48.921Z,100132.41
2019-05-02T18:25:21.638Z,100134.80
2019-05-02T18:27:51.841Z,100142.48
2019-05-02T18:30:26.866Z,100140.52
2019-05-02T18:32:57.735Z,100146.14
2019-05-02T18:35:43.032Z,100142.80
2019-05-02T18:38:10.583Z,100153.58
2019-05-02T18:40:42.562Z,100163.70
2019-05-02T18:43:14.110Z,100179.41
2019-05-02T18:45:46.503Z,100194.08
2019-05-02T18:48:21.784Z,100198.48
2019-05-02T18:50:52.673Z,100189.63
2019-05-02T18:53:26.996Z,100191.66
2019-05-02T18:55:56.843Z,100203.66
2019-05-02T18:58:31.910Z,100208.39
2019-05-02T19:01:03.529Z,100217.67
2019-05-02T19:03:37.041Z,100211.73
2019-05-02T19:06:07.834Z,100221.11
2019-05-02T19:08:46.766Z,100211.94
2019-05-02T19:11:17.571Z,100210.98
2019-05-02T19:13:52.718Z,100215.27
2019-05-02T19:16:28.569Z,100212.06
2019-05-02T19:18:58.325Z,100206.97
2019-05-02T19:21:36.763Z,100208.55
2019-05-02T19:24:04.914Z,100206.97
2019-05-02T19:26:35.567Z,100202.13
2019-05-02T19:29:14.101Z,100201.70
2019-05-02T19:31:52.322Z,100204.58
2019-05-02T19:34:26.633Z,100207.33
2019-05-02T19:36:57.815Z,100209.87
2019-05-02T19:39:29.647Z,100210.72
2019-05-02T19:42:01.736Z,100213.33
2019-05-02T19:44:37.458Z,100217.62
2019-05-02T19:47:12.526Z,100219.33
2019-05-02T19:49:42.381Z,100217.57
2019-05-02T19:52:12.842Z,100224.63
2019-05-02T19:54:43.786Z,100223.32
2019-05-02T19:57:17.144Z,100229.17
2019-05-02T19:59:47.579Z,100224.36
2019-05-02T20:02:17.952Z,100235.38
2019-05-02T20:04:48.515Z,100236.27
2019-05-02T20:07:18.966Z,100233.82
2019-05-02T20:09:49.595Z,100238.70
2019-05-02T20:12:21.888Z,100243.74
2019-05-02T20:14:52.135Z,100249.95
2019-05-02T20:17:24.052Z,100251.69
2019-05-02T20:19:57.869Z,100239.67
2019-05-02T20:22:31.642Z,100257.83
2019-05-02T20:25:04.040Z,100256.08
2019-05-02T20:27:37.615Z,100264.92
2019-05-02T20:30:08.493Z,100265.39
2019-05-02T20:32:39.065Z,100260.63
2019-05-02T20:35:13.572Z,100265.12
2019-05-02T20:37:44.048Z,100277.25
2019-05-02T20:40:31.687Z,100269.27
2019-05-02T20:43:02.622Z,100276.02
2019-05-02T20:45:35.427Z,100275.56
2019-05-02T20:48:06.130Z,100277.91
2019-05-02T20:50:44.402Z,100276.38
2019-05-02T20:53:14.956Z,100288.54
2019-05-02T20:55:45.576Z,100289.65
2019-05-02T20:58:15.982Z,100288.20
2019-05-02T21:00:46.812Z,100291.48
2019-05-02T21:03:17.538Z,100288.84
2019-05-02T21:06:13.031Z,100277.36
2019-05-02T21:08:56.298Z,100283.16
2019-05-02T21:11:27.267Z,100287.41
2019-05-02T21:13:57.723Z,100294.19
2019-05-02T21:16:28.578Z,100292.25
2019-05-02T21:18:59.142Z,100290.63
2019-05-02T21:21:29.962Z,100290.51
2019-05-02T21:24:02.192Z,100286.23
2019-05-02T21:26:32.961Z,100287.48
2019-05-02T21:29:07.713Z,100299.52
2019-05-02T21:31:37.971Z,100301.39
2019-05-02T21:34:08.091Z,100308.97
2019-05-02T21:36:38.460Z,100306.66
2019-05-02T21:39:12.180Z,100311.05
2019-05-02T21:41:43.473Z,100308.23
2019-05-02T21:44:16.723Z,100309.59
2019-05-02T21:46:47.032Z,100308.66
2019-05-02T21:49:43.428Z,100312.34
2019-05-02T21:52:32.861Z,100312.19
2019-05-02T21:55:14.330Z,100313.19
2019-05-02T21:57:44.658Z,100317.38
2019-05-02T22:00:42.180Z,100317.91
2019-05-02T22:03:12.750Z,100327.59
2019-05-02T22:05:43.262Z,100323.80
2019-05-02T22:08:13.809Z,100327.98
2019-05-02T22:10:47.283Z,100330.33
2019-05-02T22:13:19.271Z,100331.62
2019-05-02T22:15:51.614Z,100329.22
2019-05-02T22:18:24.474Z,100335.94
2019-05-02T22:20:56.585Z,100331.86
2019-05-02T22:23:27.184Z,100328.94
2019-05-02T22:25:59.599Z,100328.79
2019-05-02T22:28:29.907Z,100331.00
2019-05-02T22:31:06.951Z,100335.97
2019-05-02T22:33:37.603Z,100334.08
2019-05-02T22:36:12.384Z,100336.22
2019-05-02T22:38:54.355Z,100342.00
2019-05-02T22:41:24.861Z,100338.54
2019-05-02T22:43:55.285Z,100346.47
2019-05-02T22:46:45.413Z,100349.15
2019-05-02T22:49:16.423Z,100341.65
2019-05-02T22:51:46.938Z,100345.43
2019-05-02T22:54:26.785Z,100345.63
2019-05-02T22:56:49.553Z,100351.06
2019-05-02T22:59:23.716Z,100357.72
2019-05-02T23:01:52.879Z,100357.33
2019-05-02T23:04:23.560Z,100364.04
2019-05-02T23:06:54.948Z,100359.80
2019-05-02T23:09:25.380Z,100363.03
2019-05-02T23:11:55.642Z,100367.79
2019-05-02T23:14:28.203Z,100365.36
2019-05-02T23:16:58.349Z,100372.27
2019-05-02T23:19:28.483Z,100366.28
2019-05-02T23:21:59.033Z,100365.19
2019-05-02T23:24:44.296Z,100367.14
2019-05-02T23:27:23.903Z,100370.25
2019-05-02T23:29:55.353Z,100367.17
2019-05-02T23:32:26.861Z,100367.61
2019-05-02T23:34:57.090Z,100372.42
2019-05-02T23:37:27.402Z,100378.97
2019-05-02T23:39:57.841Z,100367.45
2019-05-02T23:42:28.553Z,100376.72
2019-05-02T23:44:59.799Z,100372.80
2019-05-02T23:47:30.081Z,100381.14
2019-05-02T23:50:00.425Z,100378.59
2019-05-02T23:52:31.598Z,100366.25
2019-05-02T23:55:03.112Z,100372.77
2019-05-02T23:57:34.411Z,100371.53
